Estación meteorológica de Montseny - Sta. Fe del Montseny (Vallès Oriental, P.N.del Montseny)

Consulta los datos en tiempo real de la estación meteorológica de Montseny - Sta. Fe del Montseny





Hora UTC 01:40
Temperatura 8.5 ºC
Humedad 67.7 %
Pluja 0.0 mm

Datos diarios 2026-05-05



Hora UTC (invierno +1h; verano +2h)
Temperatura (ºC) Humedad (%) Precipitación (mm)
Hora UTC Aire Humedad Intent. máx 5 min.
00:05 8.6 74.9 0.0
00:10 8.5 75.3 0.0
00:15 8.4 77.1 0.0
00:20 8.2 77.1 0.0
00:25 8.3 76.6 0.0
00:30 8.3 75.9 0.0
00:35 8.3 74.6 0.0
00:40 8.4 73.3 0.0
00:45 8.6 71.5 0.0
00:50 8.7 70.9 0.0
00:55 8.5 71.7 0.0
01:00 8.3 75.3 0.0
01:05 8.1 77.5 0.0
01:10 7.8 83.4 0.0
01:15 7.3 86.1 0.0
01:20 7.3 83.5 0.0
01:25 7.6 79.7 0.0
01:30 7.7 79.6 0.0
01:35 7.9 76.2 0.0
01:40 8.5 67.7 0.0
Máxima 8.7 86.1 0.0
Mínima 7.3 67.7
Total 0.0